Raiatea — V7VA3 — position and weather

sailwx.info

Track history (hours):
 
Tides and Currents Weather Stations Pressure Air Temp Water Temp Dewpoint Dewpoint Depression Visibility Wind Speed Wind Dir Waves Ship Positions

Raiatea

Last reported at 2016-Dec-24 16:16 UTC. Time now 2017-Jan-20 09:44 UTC.
Position N 37°45' E 122°37'.
Warning: this ship's position is 26 days out of date.

Length 292 m; draft 7.7 m.

Type: Cargo ship. MMSI: 538004070.

Date/timePositionNaut miles runAvg speedWind from/ knotsBaromVisibWave heightAir tempDewpointWater temp
2016-Dec-24 16:16N 37°45' E 122°37'1214.5
2016-Dec-24 15:28N 37°48' E 122°23'2814.6
2016-Dec-24 13:33N 37°52' E 121°48'1414.1
2016-Dec-24 12:33N 37°53' E 121°30'1413.7
2016-Dec-24 11:33N 37°54' E 121°13'3113.8
2016-Dec-24 09:17N 38°01' E 120°34'1114.6
2016-Dec-24 08:33N 38°04' E 120°21'6315.1
2016-Dec-24 04:24N 38°29' E 119°08'2714.9
2016-Dec-24 02:33N 38°33' E 118°33'1413.8
2016-Dec-24 01:32N 38°31' E 118°15'1110.9
2016-Dec-24 00:33N 38°26' E 118°03'8 5.1
2016-Dec-23 23:04N 38°22' E 117°55'0 0.1
2016-Dec-23 22:28N 38°22' E 117°55'0 0.0
2016-Dec-23 21:22N 38°22' E 117°55'0 0.0
2016-Dec-23 20:22N 38°22' E 117°55'0 0.0
2016-Dec-23 19:22N 38°22' E 117°55'0 0.0
2016-Dec-23 18:04N 38°22' E 117°55'0 0.1
2016-Dec-23 17:28N 38°22' E 117°55'0 0.0
2016-Dec-23 14:04N 38°22' E 117°55'0 0.1
2016-Dec-23 13:22N 38°22' E 117°55'0 0.0
2016-Dec-23 12:10N 38°22' E 117°55'0 0.0
2016-Dec-23 10:16N 38°22' E 117°55'0 0.0
2016-Dec-23 08:22N 38°22' E 117°55'0 0.0
2016-Dec-23 06:10N 38°22' E 117°55'0 0.0
2016-Dec-23 01:28N 38°22' E 117°55'0 0.0
2016-Dec-22 23:28N 38°22' E 117°55'0 0.0
2016-Dec-22 22:22N 38°22' E 117°55'0 0.0
2016-Dec-22 21:22N 38°22' E 117°55'0 0.1
2016-Dec-22 20:28N 38°22' E 117°55'0 0.0
2016-Dec-22 19:28N 38°22' E 117°55'0 0.0
2016-Dec-22 18:28N 38°22' E 117°55'0 0.0
2016-Dec-22 17:16N 38°22' E 117°55'0 0.0
2016-Dec-22 15:22N 38°22' E 117°55'0 0.1
2016-Dec-22 14:28N 38°22' E 117°55'0 0.0
2016-Dec-22 13:28N 38°22' E 117°55'0 0.0
2016-Dec-22 07:19N 38°22' E 117°55'119 3.3
2016-Dec-20 19:09N 38°08' E 120°25'1014.9
2016-Dec-20 18:29N 38°03' E 120°36'1414.9
2016-Dec-20 17:33N 38°00' E 120°54'1414.5
2016-Dec-20 16:34N 37°58' E 121°12'1414.2
2016-Dec-20 15:34N 37°55' E 121°29'1414.3
2016-Dec-20 14:34N 37°52' E 121°47'1414.3
2016-Dec-20 13:33N 37°50' E 122°05'1514.4
2016-Dec-20 12:32N 37°48' E 122°24'1714.1
2016-Dec-20 11:18N 37°44' E 122°45'1413.4
2016-Dec-20 10:16N 37°38' E 123°01'1013.0
2016-Dec-20 09:29N 37°32' E 123°11'1313.1
2016-Dec-20 08:29N 37°20' E 123°17'2713.6
2016-Dec-20 06:32N 36°53' E 123°15'18012.5
2016-Dec-19 16:07N 35°12' E 120°11'814.4
2016-Dec-19 15:33N 35°12' E 120°01'1414.2
2016-Dec-19 14:33N 35°16' E 119°45'1110.5
2016-Dec-19 13:33N 35°20' E 119°33'1 1.0
2016-Dec-19 12:32N 35°21' E 119°32'0 0.0
2016-Dec-19 11:26N 35°21' E 119°32'0 0.0
2016-Dec-19 10:32N 35°21' E 119°32'0 0.0
2016-Dec-19 09:32N 35°21' E 119°32'0 0.0
2016-Dec-19 08:32N 35°21' E 119°32'0 0.0
2016-Dec-19 07:32N 35°21' E 119°32'0 0.0
2016-Dec-19 06:32N 35°21' E 119°32'0 0.0
2016-Dec-19 04:20N 35°21' E 119°32'0 0.0
2016-Dec-19 03:26N 35°21' E 119°32'0 0.0
2016-Dec-19 02:32N 35°21' E 119°32'0 0.0
2016-Dec-19 01:26N 35°21' E 119°32'0 0.0
2016-Dec-19 00:32N 35°21' E 119°32'0 0.0
2016-Dec-18 23:30N 35°21' E 119°32'1 0.7
2016-Dec-18 22:22N 35°22' E 119°33'0 0.0
2016-Dec-18 21:28N 35°22' E 119°33'0 0.0
2016-Dec-18 20:04N 35°22' E 119°33'0 0.0
2016-Dec-18 19:22N 35°22' E 119°33'0 0.0
2016-Dec-18 18:22N 35°22' E 119°33'0 0.0
2016-Dec-18 17:22N 35°22' E 119°33'0 0.0
2016-Dec-18 16:22N 35°22' E 119°33'0 0.0
2016-Dec-18 15:28N 35°22' E 119°33'0 0.1
2016-Dec-18 14:28N 35°22' E 119°33'0 0.1
2016-Dec-18 13:28N 35°22' E 119°33'0 0.0
2016-Dec-18 12:10N 35°22' E 119°33'0 0.0
2016-Dec-18 11:28N 35°22' E 119°33'0 0.0
2016-Dec-18 10:28N 35°22' E 119°33'0 0.0
2016-Dec-18 09:28N 35°22' E 119°33'0 0.0
2016-Dec-18 07:28N 35°22' E 119°33'0 0.0
2016-Dec-18 06:28N 35°22' E 119°33'0 0.0
2016-Dec-18 05:28N 35°22' E 119°33'0 0.0
2016-Dec-18 04:28N 35°22' E 119°33'0 0.0
2016-Dec-18 03:22N 35°22' E 119°33'0 0.0
2016-Dec-18 02:04N 35°22' E 119°33'0 0.1
2016-Dec-18 01:33N 35°22' E 119°33'4 4.1
2016-Dec-18 00:33N 35°19' E 119°37'5 5.1
2016-Dec-17 23:33N 35°17' E 119°42'3 2.6
2016-Dec-17 22:33N 35°16' E 119°45'3 2.8
2016-Dec-17 21:31N 35°17' E 119°48'0 0.1
2016-Dec-17 19:10N 35°17' E 119°48'0 0.1
2016-Dec-17 17:23N 35°17' E 119°48'0 0.0
2016-Dec-17 16:29N 35°17' E 119°48'0 0.1
2016-Dec-17 14:29N 35°17' E 119°48'0 0.3
2016-Dec-17 13:23N 35°17' E 119°48'0 0.0
2016-Dec-17 12:29N 35°17' E 119°48'0 0.0
2016-Dec-17 11:29N 35°17' E 119°48'0 0.0
2016-Dec-17 10:29N 35°17' E 119°48'0 0.0
2016-Dec-17 09:29N 35°17' E 119°48'0 0.1
2016-Dec-17 08:29N 35°17' E 119°48'0 0.2
2016-Dec-17 07:29N 35°17' E 119°48'0 0.1
2016-Dec-17 06:29N 35°17' E 119°48'0 0.0
2016-Dec-17 04:29N 35°17' E 119°48'0 0.0
2016-Dec-17 03:29N 35°17' E 119°48'0 0.0
2016-Dec-17 02:29N 35°17' E 119°48'0 0.0
2016-Dec-17 01:17N 35°17' E 119°48'0 0.2
2016-Dec-17 00:29N 35°17' E 119°48'0 0.1
2016-Dec-16 23:16N 35°17' E 119°48'0 0.1
2016-Dec-16 22:29N 35°17' E 119°48'0 0.0
2016-Dec-16 21:29N 35°17' E 119°48'0 0.2
2016-Dec-16 20:23N 35°17' E 119°48'0 0.2
2016-Dec-16 19:29N 35°17' E 119°48'0 0.1
2016-Dec-16 18:17N 35°17' E 119°48'0 0.1
2016-Dec-16 17:22N 35°17' E 119°48'0 0.0
2016-Dec-16 16:28N 35°17' E 119°48'0 0.0
2016-Dec-16 15:28N 35°17' E 119°48'0 0.0
2016-Dec-16 14:28N 35°17' E 119°48'0 0.0
2016-Dec-16 13:10N 35°17' E 119°48'0 0.2
2016-Dec-16 12:28N 35°17' E 119°48'0 0.2
2016-Dec-16 11:28N 35°17' E 119°48'0 0.1
2016-Dec-16 10:28N 35°17' E 119°48'0 0.0
2016-Dec-16 02:22N 35°17' E 119°48'0 0.0
2016-Dec-16 01:28N 35°17' E 119°48'0 0.1
2016-Dec-16 00:16N 35°17' E 119°48'0 0.1
2016-Dec-15 23:28N 35°17' E 119°48'0 0.1
2016-Dec-15 22:28N 35°17' E 119°48'0 0.1
2016-Dec-15 21:28N 35°17' E 119°48'0 0.0
2016-Dec-15 20:28N 35°17' E 119°48'0 0.1
2016-Dec-15 19:28N 35°17' E 119°48'0 0.1
2016-Dec-15 18:22N 35°17' E 119°48'0 0.1
2016-Dec-15 17:05N 35°17' E 119°48'0 0.1
2016-Dec-15 16:14N 35°17' E 119°48'0 0.0
2016-Dec-15 15:32N 35°17' E 119°48'0 0.1
2016-Dec-15 14:32N 35°17' E 119°48'0 0.1
2016-Dec-15 13:32N 35°17' E 119°48'0 0.1
2016-Dec-15 12:26N 35°17' E 119°48'0 0.1
2016-Dec-15 11:20N 35°17' E 119°48'0 0.1
2016-Dec-15 10:32N 35°17' E 119°48'0 0.0
2016-Dec-15 09:32N 35°17' E 119°48'0 0.1
2016-Dec-15 08:20N 35°17' E 119°48'0 0.1
2016-Dec-15 07:32N 35°17' E 119°48'0 0.1
2016-Dec-15 05:26N 35°17' E 119°48'0 0.1
2016-Dec-15 04:32N 35°17' E 119°48'0 0.1
2016-Dec-15 03:32N 35°17' E 119°48'  
Track history (hours):
 
Tides and Currents Weather Stations Pressure Air Temp Water Temp Dewpoint Dewpoint Depression Visibility Wind Speed Wind Dir Waves Ship Positions

Raiatea

Last reported at 2016-Dec-24 16:16 UTC. Time now 2017-Jan-20 09:44 UTC.
Position N 37°45' E 122°37'.
Warning: this ship's position is 26 days out of date.

Length 292 m; draft 7.7 m.

Type: Cargo ship. MMSI: 538004070.

Date/timePositionNaut miles runAvg speedWind from/ knotsBaromVisibWave heightAir tempDewpointWater temp
2016-Dec-24 16:16N 37°45' E 122°37'1214.5
2016-Dec-24 15:28N 37°48' E 122°23'2814.6
2016-Dec-24 13:33N 37°52' E 121°48'1414.1
2016-Dec-24 12:33N 37°53' E 121°30'1413.7
2016-Dec-24 11:33N 37°54' E 121°13'3113.8
2016-Dec-24 09:17N 38°01' E 120°34'1114.6
2016-Dec-24 08:33N 38°04' E 120°21'6315.1
2016-Dec-24 04:24N 38°29' E 119°08'2714.9
2016-Dec-24 02:33N 38°33' E 118°33'1413.8
2016-Dec-24 01:32N 38°31' E 118°15'1110.9
2016-Dec-24 00:33N 38°26' E 118°03'8 5.1
2016-Dec-23 23:04N 38°22' E 117°55'0 0.1
2016-Dec-23 22:28N 38°22' E 117°55'0 0.0
2016-Dec-23 21:22N 38°22' E 117°55'0 0.0
2016-Dec-23 20:22N 38°22' E 117°55'0 0.0
2016-Dec-23 19:22N 38°22' E 117°55'0 0.0
2016-Dec-23 18:04N 38°22' E 117°55'0 0.1
2016-Dec-23 17:28N 38°22' E 117°55'0 0.0
2016-Dec-23 14:04N 38°22' E 117°55'0 0.1
2016-Dec-23 13:22N 38°22' E 117°55'0 0.0
2016-Dec-23 12:10N 38°22' E 117°55'0 0.0
2016-Dec-23 10:16N 38°22' E 117°55'0 0.0
2016-Dec-23 08:22N 38°22' E 117°55'0 0.0
2016-Dec-23 06:10N 38°22' E 117°55'0 0.0
2016-Dec-23 01:28N 38°22' E 117°55'0 0.0
2016-Dec-22 23:28N 38°22' E 117°55'0 0.0
2016-Dec-22 22:22N 38°22' E 117°55'0 0.0
2016-Dec-22 21:22N 38°22' E 117°55'0 0.1
2016-Dec-22 20:28N 38°22' E 117°55'0 0.0
2016-Dec-22 19:28N 38°22' E 117°55'0 0.0
2016-Dec-22 18:28N 38°22' E 117°55'0 0.0
2016-Dec-22 17:16N 38°22' E 117°55'0 0.0
2016-Dec-22 15:22N 38°22' E 117°55'0 0.1
2016-Dec-22 14:28N 38°22' E 117°55'0 0.0
2016-Dec-22 13:28N 38°22' E 117°55'0 0.0
2016-Dec-22 07:19N 38°22' E 117°55'119 3.3
2016-Dec-20 19:09N 38°08' E 120°25'1014.9
2016-Dec-20 18:29N 38°03' E 120°36'1414.9
2016-Dec-20 17:33N 38°00' E 120°54'1414.5
2016-Dec-20 16:34N 37°58' E 121°12'1414.2
2016-Dec-20 15:34N 37°55' E 121°29'1414.3
2016-Dec-20 14:34N 37°52' E 121°47'1414.3
2016-Dec-20 13:33N 37°50' E 122°05'1514.4
2016-Dec-20 12:32N 37°48' E 122°24'1714.1
2016-Dec-20 11:18N 37°44' E 122°45'1413.4
2016-Dec-20 10:16N 37°38' E 123°01'1013.0
2016-Dec-20 09:29N 37°32' E 123°11'1313.1
2016-Dec-20 08:29N 37°20' E 123°17'2713.6
2016-Dec-20 06:32N 36°53' E 123°15'18012.5
2016-Dec-19 16:07N 35°12' E 120°11'814.4
2016-Dec-19 15:33N 35°12' E 120°01'1414.2
2016-Dec-19 14:33N 35°16' E 119°45'1110.5
2016-Dec-19 13:33N 35°20' E 119°33'1 1.0
2016-Dec-19 12:32N 35°21' E 119°32'0 0.0
2016-Dec-19 11:26N 35°21' E 119°32'0 0.0
2016-Dec-19 10:32N 35°21' E 119°32'0 0.0
2016-Dec-19 09:32N 35°21' E 119°32'0 0.0
2016-Dec-19 08:32N 35°21' E 119°32'0 0.0
2016-Dec-19 07:32N 35°21' E 119°32'0 0.0
2016-Dec-19 06:32N 35°21' E 119°32'0 0.0
2016-Dec-19 04:20N 35°21' E 119°32'0 0.0
2016-Dec-19 03:26N 35°21' E 119°32'0 0.0
2016-Dec-19 02:32N 35°21' E 119°32'0 0.0
2016-Dec-19 01:26N 35°21' E 119°32'0 0.0
2016-Dec-19 00:32N 35°21' E 119°32'0 0.0
2016-Dec-18 23:30N 35°21' E 119°32'1 0.7
2016-Dec-18 22:22N 35°22' E 119°33'0 0.0
2016-Dec-18 21:28N 35°22' E 119°33'0 0.0
2016-Dec-18 20:04N 35°22' E 119°33'0 0.0
2016-Dec-18 19:22N 35°22' E 119°33'0 0.0
2016-Dec-18 18:22N 35°22' E 119°33'0 0.0
2016-Dec-18 17:22N 35°22' E 119°33'0 0.0
2016-Dec-18 16:22N 35°22' E 119°33'0 0.0
2016-Dec-18 15:28N 35°22' E 119°33'0 0.1
2016-Dec-18 14:28N 35°22' E 119°33'0 0.1
2016-Dec-18 13:28N 35°22' E 119°33'0 0.0
2016-Dec-18 12:10N 35°22' E 119°33'0 0.0
2016-Dec-18 11:28N 35°22' E 119°33'0 0.0
2016-Dec-18 10:28N 35°22' E 119°33'0 0.0
2016-Dec-18 09:28N 35°22' E 119°33'0 0.0
2016-Dec-18 07:28N 35°22' E 119°33'0 0.0
2016-Dec-18 06:28N 35°22' E 119°33'0 0.0
2016-Dec-18 05:28N 35°22' E 119°33'0 0.0
2016-Dec-18 04:28N 35°22' E 119°33'0 0.0
2016-Dec-18 03:22N 35°22' E 119°33'0 0.0
2016-Dec-18 02:04N 35°22' E 119°33'0 0.1
2016-Dec-18 01:33N 35°22' E 119°33'4 4.1
2016-Dec-18 00:33N 35°19' E 119°37'5 5.1
2016-Dec-17 23:33N 35°17' E 119°42'3 2.6
2016-Dec-17 22:33N 35°16' E 119°45'3 2.8
2016-Dec-17 21:31N 35°17' E 119°48'0 0.1
2016-Dec-17 19:10N 35°17' E 119°48'0 0.1
2016-Dec-17 17:23N 35°17' E 119°48'0 0.0
2016-Dec-17 16:29N 35°17' E 119°48'0 0.1
2016-Dec-17 14:29N 35°17' E 119°48'0 0.3
2016-Dec-17 13:23N 35°17' E 119°48'0 0.0
2016-Dec-17 12:29N 35°17' E 119°48'0 0.0
2016-Dec-17 11:29N 35°17' E 119°48'0 0.0
2016-Dec-17 10:29N 35°17' E 119°48'0 0.0
2016-Dec-17 09:29N 35°17' E 119°48'0 0.1
2016-Dec-17 08:29N 35°17' E 119°48'0 0.2
2016-Dec-17 07:29N 35°17' E 119°48'0 0.1
2016-Dec-17 06:29N 35°17' E 119°48'0 0.0
2016-Dec-17 04:29N 35°17' E 119°48'0 0.0
2016-Dec-17 03:29N 35°17' E 119°48'0 0.0
2016-Dec-17 02:29N 35°17' E 119°48'0 0.0
2016-Dec-17 01:17N 35°17' E 119°48'0 0.2
2016-Dec-17 00:29N 35°17' E 119°48'0 0.1
2016-Dec-16 23:16N 35°17' E 119°48'0 0.1
2016-Dec-16 22:29N 35°17' E 119°48'0 0.0
2016-Dec-16 21:29N 35°17' E 119°48'0 0.2
2016-Dec-16 20:23N 35°17' E 119°48'0 0.2
2016-Dec-16 19:29N 35°17' E 119°48'0 0.1
2016-Dec-16 18:17N 35°17' E 119°48'0 0.1
2016-Dec-16 17:22N 35°17' E 119°48'0 0.0
2016-Dec-16 16:28N 35°17' E 119°48'0 0.0
2016-Dec-16 15:28N 35°17' E 119°48'0 0.0
2016-Dec-16 14:28N 35°17' E 119°48'0 0.0
2016-Dec-16 13:10N 35°17' E 119°48'0 0.2
2016-Dec-16 12:28N 35°17' E 119°48'0 0.2
2016-Dec-16 11:28N 35°17' E 119°48'0 0.1
2016-Dec-16 10:28N 35°17' E 119°48'0 0.0
2016-Dec-16 02:22N 35°17' E 119°48'0 0.0
2016-Dec-16 01:28N 35°17' E 119°48'0 0.1
2016-Dec-16 00:16N 35°17' E 119°48'0 0.1
2016-Dec-15 23:28N 35°17' E 119°48'0 0.1
2016-Dec-15 22:28N 35°17' E 119°48'0 0.1
2016-Dec-15 21:28N 35°17' E 119°48'0 0.0
2016-Dec-15 20:28N 35°17' E 119°48'0 0.1
2016-Dec-15 19:28N 35°17' E 119°48'0 0.1
2016-Dec-15 18:22N 35°17' E 119°48'0 0.1
2016-Dec-15 17:05N 35°17' E 119°48'0 0.1
2016-Dec-15 16:14N 35°17' E 119°48'0 0.0
2016-Dec-15 15:32N 35°17' E 119°48'0 0.1
2016-Dec-15 14:32N 35°17' E 119°48'0 0.1
2016-Dec-15 13:32N 35°17' E 119°48'0 0.1
2016-Dec-15 12:26N 35°17' E 119°48'0 0.1
2016-Dec-15 11:20N 35°17' E 119°48'0 0.1
2016-Dec-15 10:32N 35°17' E 119°48'0 0.0
2016-Dec-15 09:32N 35°17' E 119°48'0 0.1
2016-Dec-15 08:20N 35°17' E 119°48'0 0.1
2016-Dec-15 07:32N 35°17' E 119°48'0 0.1
2016-Dec-15 05:26N 35°17' E 119°48'0 0.1
2016-Dec-15 04:32N 35°17' E 119°48'0 0.1
2016-Dec-15 03:32N 35°17' E 119°48'  

Dump ship's entire track history